createdAt,value
2017-10-22T00:00:01.049Z,9.93
2017-10-22T00:02:28.539Z,10.77
2017-10-22T00:04:55.982Z,11.02
2017-10-22T00:07:23.422Z,12.37
2017-10-22T00:09:50.850Z,11.10
2017-10-22T00:12:18.303Z,9.75
2017-10-22T00:14:46.494Z,9.40
2017-10-22T00:17:14.127Z,9.23
2017-10-22T00:19:42.363Z,8.47
2017-10-22T00:22:09.926Z,8.80
2017-10-22T00:24:37.359Z,8.63
2017-10-22T00:27:04.837Z,8.63
2017-10-22T00:29:32.270Z,8.82
2017-10-22T00:31:59.739Z,8.70
2017-10-22T00:34:27.211Z,7.70
2017-10-22T00:36:54.681Z,8.23
2017-10-22T00:39:22.104Z,8.43
2017-10-22T00:41:49.542Z,7.82
2017-10-22T00:44:17.040Z,8.48
2017-10-22T00:46:44.459Z,8.00
2017-10-22T00:49:11.895Z,8.70
2017-10-22T00:51:39.330Z,8.15
2017-10-22T00:54:06.851Z,8.10
2017-10-22T00:56:34.318Z,7.85
2017-10-22T00:59:01.739Z,7.15
2017-10-22T01:01:29.179Z,8.30
2017-10-22T01:03:56.638Z,7.47
2017-10-22T01:06:24.074Z,7.80
2017-10-22T01:08:52.283Z,7.90
2017-10-22T01:11:19.728Z,7.45
2017-10-22T01:13:47.180Z,8.20
2017-10-22T01:16:14.760Z,7.30
2017-10-22T01:18:42.211Z,8.10
2017-10-22T01:21:09.661Z,7.43
2017-10-22T01:23:37.143Z,7.07
2017-10-22T01:26:04.596Z,6.40
2017-10-22T01:28:32.058Z,5.80
2017-10-22T01:30:59.518Z,6.43
2017-10-22T01:33:26.974Z,5.87
2017-10-22T01:35:54.408Z,6.60
2017-10-22T01:38:21.842Z,6.43
2017-10-22T01:40:49.335Z,6.43
2017-10-22T01:43:16.776Z,6.43
2017-10-22T01:45:44.216Z,6.00
2017-10-22T01:48:11.647Z,6.45
2017-10-22T01:50:39.869Z,5.82
2017-10-22T01:53:07.295Z,5.57
2017-10-22T01:55:34.730Z,6.47
2017-10-22T01:58:02.979Z,6.28
2017-10-22T02:00:30.534Z,5.32
2017-10-22T02:02:57.974Z,6.60
2017-10-22T02:05:25.410Z,4.85
2017-10-22T02:07:52.840Z,5.78
2017-10-22T02:10:21.064Z,5.50
2017-10-22T02:12:48.491Z,5.10
2017-10-22T02:15:15.936Z,4.50
2017-10-22T02:17:43.366Z,4.30
2017-10-22T02:20:10.890Z,5.00
2017-10-22T02:22:38.323Z,4.60
2017-10-22T02:25:05.760Z,4.28
2017-10-22T02:27:33.215Z,4.70
2017-10-22T02:30:00.639Z,4.07
2017-10-22T02:32:28.176Z,4.60
2017-10-22T02:34:55.630Z,3.90
2017-10-22T02:37:23.096Z,4.30
2017-10-22T02:39:50.555Z,4.35
2017-10-22T02:42:17.983Z,4.43
2017-10-22T02:44:45.455Z,4.85
2017-10-22T02:47:12.892Z,4.90
2017-10-22T02:49:40.322Z,4.55
2017-10-22T02:52:08.622Z,4.33
2017-10-22T02:54:36.046Z,5.10
2017-10-22T02:57:04.292Z,4.43
2017-10-22T02:59:31.732Z,4.30
2017-10-22T03:01:59.173Z,4.47
2017-10-22T03:04:26.595Z,4.57
2017-10-22T03:06:54.107Z,4.32
2017-10-22T03:09:21.549Z,4.10
2017-10-22T03:11:49.007Z,4.28
2017-10-22T03:14:16.460Z,4.37
2017-10-22T03:16:43.935Z,4.53
2017-10-22T03:19:11.385Z,4.25
2017-10-22T03:21:38.821Z,4.30
2017-10-22T03:24:06.269Z,4.28
2017-10-22T03:26:33.754Z,4.62
2017-10-22T03:29:01.210Z,4.53
2017-10-22T03:31:28.652Z,4.40
2017-10-22T03:33:56.101Z,4.28
2017-10-22T03:36:23.575Z,5.00
2017-10-22T03:38:51.791Z,4.72
2017-10-22T03:41:20.014Z,5.28
2017-10-22T03:43:47.469Z,5.20
2017-10-22T03:46:14.910Z,4.60
2017-10-22T03:48:42.350Z,4.93
2017-10-22T03:51:09.846Z,4.43
2017-10-22T03:53:37.271Z,4.80
2017-10-22T03:56:04.715Z,4.30
2017-10-22T03:58:32.165Z,5.47
2017-10-22T04:01:00.375Z,3.72
2017-10-22T04:03:27.819Z,5.00
2017-10-22T04:05:55.258Z,4.18
2017-10-22T04:08:22.864Z,4.15
2017-10-22T04:10:50.395Z,4.23
2017-10-22T04:13:17.879Z,4.22
2017-10-22T04:15:45.303Z,4.40
2017-10-22T04:18:12.745Z,4.10
2017-10-22T04:20:40.195Z,4.57
2017-10-22T04:23:08.398Z,4.57
2017-10-22T04:25:35.857Z,4.87
2017-10-22T04:28:03.292Z,4.10
2017-10-22T04:30:30.735Z,3.85
2017-10-22T04:32:58.959Z,4.32
2017-10-22T04:35:26.415Z,4.00
2017-10-22T04:37:53.840Z,4.30
2017-10-22T04:40:21.315Z,4.93
2017-10-22T04:42:48.755Z,3.60
2017-10-22T04:45:16.192Z,4.22
2017-10-22T04:47:43.623Z,4.35
2017-10-22T04:50:11.070Z,4.10
2017-10-22T04:52:38.706Z,4.30
2017-10-22T04:55:06.179Z,5.10
2017-10-22T04:57:33.658Z,5.10
2017-10-22T05:00:01.183Z,4.97
2017-10-22T05:02:28.623Z,4.40
2017-10-22T05:04:56.085Z,4.37
2017-10-22T05:07:23.539Z,4.57
2017-10-22T05:09:51.000Z,4.47
2017-10-22T05:12:18.448Z,4.93
2017-10-22T05:14:45.920Z,6.10
2017-10-22T05:17:13.371Z,4.70
2017-10-22T05:19:40.837Z,5.43
2017-10-22T05:22:08.366Z,5.20
2017-10-22T05:24:35.850Z,4.45
2017-10-22T05:27:03.297Z,4.53
2017-10-22T05:29:30.740Z,5.40
2017-10-22T05:31:58.183Z,5.20
2017-10-22T05:34:25.602Z,6.53
2017-10-22T05:36:53.844Z,7.32
2017-10-22T05:39:21.302Z,6.60
2017-10-22T05:41:48.868Z,7.37
2017-10-22T05:44:16.411Z,7.37
2017-10-22T05:46:43.872Z,7.00
2017-10-22T05:49:11.307Z,7.20
2017-10-22T05:51:38.794Z,7.15
2017-10-22T05:54:06.252Z,7.20
2017-10-22T05:56:33.709Z,6.00
2017-10-22T05:59:01.141Z,5.82
2017-10-22T06:01:28.571Z,5.37
2017-10-22T06:03:56.014Z,5.43
2017-10-22T06:06:23.501Z,5.00
2017-10-22T06:08:50.927Z,5.40
2017-10-22T06:11:19.127Z,5.30
2017-10-22T06:13:46.562Z,4.70
2017-10-22T06:16:14.003Z,4.90
2017-10-22T06:18:42.238Z,5.18
2017-10-22T06:21:09.656Z,5.40
2017-10-22T06:23:37.109Z,4.70
2017-10-22T06:26:04.535Z,5.03
2017-10-22T06:28:32.062Z,4.70
2017-10-22T06:30:59.489Z,4.15
2017-10-22T06:33:26.937Z,4.60
2017-10-22T06:35:54.536Z,4.50
2017-10-22T06:38:21.970Z,4.60
2017-10-22T06:40:49.528Z,5.00
2017-10-22T06:43:16.958Z,6.05
2017-10-22T06:45:45.187Z,4.90
2017-10-22T06:48:12.630Z,4.97
2017-10-22T06:50:40.073Z,4.45
2017-10-22T06:53:07.540Z,4.90
2017-10-22T06:55:35.017Z,4.90
2017-10-22T06:58:02.476Z,4.70
2017-10-22T07:00:30.015Z,4.15
2017-10-22T07:02:57.440Z,4.45
2017-10-22T07:05:24.877Z,4.35
2017-10-22T07:07:53.209Z,4.55
2017-10-22T07:10:20.650Z,4.47
2017-10-22T07:12:48.082Z,5.05
2017-10-22T07:15:15.667Z,4.30
2017-10-22T07:17:43.110Z,4.15
2017-10-22T07:20:10.583Z,4.30
2017-10-22T07:22:38.020Z,4.47
2017-10-22T07:25:05.460Z,3.90
2017-10-22T07:27:33.055Z,5.12
2017-10-22T07:30:00.519Z,4.85
2017-10-22T07:32:27.955Z,4.70
2017-10-22T07:34:55.434Z,4.47
2017-10-22T07:37:22.879Z,4.30
2017-10-22T07:39:50.320Z,4.87
2017-10-22T07:42:17.759Z,4.50
2017-10-22T07:44:45.250Z,5.57
2017-10-22T07:47:12.702Z,4.70
2017-10-22T07:49:40.147Z,4.70
2017-10-22T07:52:07.624Z,4.20
2017-10-22T07:54:35.046Z,4.60
2017-10-22T07:57:02.510Z,4.40
2017-10-22T07:59:29.947Z,4.78
2017-10-22T08:01:57.450Z,4.60
2017-10-22T08:04:24.896Z,4.67
2017-10-22T08:06:52.334Z,4.30
2017-10-22T08:09:19.751Z,4.40
2017-10-22T08:11:47.954Z,4.22
2017-10-22T08:14:15.386Z,4.30
2017-10-22T08:16:43.627Z,4.30
2017-10-22T08:19:11.071Z,4.20
2017-10-22T08:21:38.520Z,3.83
2017-10-22T08:24:05.954Z,4.60
2017-10-22T08:26:33.454Z,4.30
2017-10-22T08:29:00.890Z,4.10
2017-10-22T08:31:28.549Z,3.62
2017-10-22T08:33:55.968Z,3.80
2017-10-22T08:36:24.195Z,3.70
2017-10-22T08:38:51.647Z,3.90
2017-10-22T08:41:19.078Z,3.97
2017-10-22T08:43:46.530Z,3.92
2017-10-22T08:46:13.961Z,3.53
2017-10-22T08:48:42.270Z,4.22
2017-10-22T08:51:09.684Z,3.60
2017-10-22T08:53:37.914Z,3.50
2017-10-22T08:56:05.354Z,3.33
2017-10-22T08:58:32.981Z,4.00
2017-10-22T09:01:00.395Z,3.10
2017-10-22T09:03:27.853Z,3.60
2017-10-22T09:05:55.322Z,3.95
2017-10-22T09:08:22.762Z,3.40
2017-10-22T09:10:50.227Z,3.53
2017-10-22T09:13:17.677Z,3.12
2017-10-22T09:15:45.118Z,2.97
2017-10-22T09:18:12.583Z,3.80
2017-10-22T09:20:40.033Z,3.80
2017-10-22T09:23:07.459Z,2.83
2017-10-22T09:25:34.895Z,2.80
2017-10-22T09:28:03.091Z,2.60
2017-10-22T09:30:30.530Z,2.40
2017-10-22T09:32:58.771Z,2.78
2017-10-22T09:35:26.204Z,2.08
2017-10-22T09:37:53.670Z,2.62
2017-10-22T09:40:21.112Z,2.90
2017-10-22T09:42:48.584Z,2.85
2017-10-22T09:45:16.120Z,2.33
2017-10-22T09:47:43.602Z,2.80
2017-10-22T09:50:11.039Z,2.15
2017-10-22T09:52:38.465Z,2.30
2017-10-22T09:55:05.906Z,2.35
2017-10-22T09:57:34.113Z,2.10
2017-10-22T10:00:01.607Z,2.33
2017-10-22T10:02:29.155Z,2.40
2017-10-22T10:04:56.583Z,2.00
2017-10-22T10:07:24.066Z,1.92
2017-10-22T10:09:51.508Z,1.98
2017-10-22T10:12:18.957Z,2.08
2017-10-22T10:14:46.370Z,2.33
2017-10-22T10:17:14.559Z,2.12
2017-10-22T10:19:41.984Z,2.15
2017-10-22T10:22:09.527Z,1.70
2017-10-22T10:24:36.975Z,1.90
2017-10-22T10:27:04.407Z,2.60
2017-10-22T10:29:31.833Z,2.97
2017-10-22T10:32:00.040Z,3.28
2017-10-22T10:34:27.515Z,2.50
2017-10-22T10:36:54.975Z,2.62
2017-10-22T10:39:22.418Z,2.70
2017-10-22T10:41:49.883Z,2.20
2017-10-22T10:44:17.335Z,2.15
2017-10-22T10:46:44.782Z,1.90
2017-10-22T10:49:12.251Z,1.98
2017-10-22T10:51:39.682Z,2.00
2017-10-22T10:54:07.266Z,1.80
2017-10-22T10:56:34.747Z,1.80
2017-10-22T10:59:02.179Z,1.85
2017-10-22T11:01:29.634Z,2.67
2017-10-22T11:03:57.072Z,1.87
2017-10-22T11:06:24.532Z,2.70
2017-10-22T11:08:51.955Z,3.20
2017-10-22T11:11:20.150Z,3.92
2017-10-22T11:13:47.638Z,3.47
2017-10-22T11:16:15.074Z,2.20
2017-10-22T11:18:42.557Z,2.40
2017-10-22T11:21:09.974Z,2.45
2017-10-22T11:23:37.427Z,2.70
2017-10-22T11:26:04.908Z,3.20
2017-10-22T11:28:32.470Z,2.80
2017-10-22T11:30:59.905Z,2.70
2017-10-22T11:33:27.372Z,2.97
2017-10-22T11:35:54.812Z,2.70
2017-10-22T11:38:22.246Z,2.75
2017-10-22T11:40:50.471Z,2.40
2017-10-22T11:43:17.924Z,3.45
2017-10-22T11:45:45.374Z,3.33
2017-10-22T11:48:12.813Z,4.13
2017-10-22T11:50:40.248Z,4.00
2017-10-22T11:53:08.476Z,3.80
2017-10-22T11:55:35.932Z,2.83
2017-10-22T11:58:03.386Z,2.50
2017-10-22T12:00:30.924Z,2.10
2017-10-22T12:02:58.395Z,2.00
2017-10-22T12:05:25.836Z,3.22
2017-10-22T12:07:53.271Z,2.60
2017-10-22T12:10:20.779Z,2.70
2017-10-22T12:12:48.234Z,3.07
2017-10-22T12:15:15.692Z,3.12
2017-10-22T12:17:43.142Z,3.25
2017-10-22T12:20:10.598Z,3.55
2017-10-22T12:22:38.028Z,3.10
2017-10-22T12:25:05.510Z,3.30
2017-10-22T12:27:33.044Z,3.30
2017-10-22T12:30:00.512Z,4.60
2017-10-22T12:32:27.931Z,3.58
2017-10-22T12:34:55.440Z,2.70
2017-10-22T12:37:22.904Z,3.60
2017-10-22T12:39:50.346Z,3.62
2017-10-22T12:42:17.797Z,4.10
2017-10-22T12:44:45.231Z,4.40
2017-10-22T12:47:12.670Z,3.70
2017-10-22T12:49:40.109Z,3.72
2017-10-22T12:52:07.608Z,6.05
2017-10-22T12:54:35.023Z,5.00
2017-10-22T12:57:03.266Z,4.72
2017-10-22T12:59:30.732Z,2.80
2017-10-22T13:01:58.168Z,3.77
2017-10-22T13:04:25.636Z,4.53
2017-10-22T13:06:53.183Z,3.30
2017-10-22T13:09:20.614Z,3.37
2017-10-22T13:11:48.050Z,3.00
2017-10-22T13:14:15.483Z,3.37
2017-10-22T13:16:42.934Z,5.68
2017-10-22T13:19:10.382Z,4.50
2017-10-22T13:21:37.918Z,4.60
2017-10-22T13:24:05.385Z,5.05
2017-10-22T13:26:32.812Z,6.90
2017-10-22T13:29:00.291Z,5.13
2017-10-22T13:31:27.714Z,5.90
2017-10-22T13:33:55.165Z,6.00
2017-10-22T13:36:23.355Z,6.40
2017-10-22T13:38:50.799Z,6.50
2017-10-22T13:41:18.254Z,7.00
2017-10-22T13:43:45.731Z,6.20
2017-10-22T13:46:13.207Z,6.72
2017-10-22T13:48:40.640Z,6.30
2017-10-22T13:51:08.073Z,6.47
2017-10-22T13:53:35.575Z,6.28
2017-10-22T13:56:03.010Z,5.97
2017-10-22T13:58:30.474Z,6.20
2017-10-22T14:00:58.022Z,6.40
2017-10-22T14:03:25.455Z,6.20
2017-10-22T14:05:53.038Z,7.33
2017-10-22T14:08:20.594Z,6.90
2017-10-22T14:10:48.034Z,7.00
2017-10-22T14:13:15.481Z,6.15
2017-10-22T14:15:43.702Z,6.55
2017-10-22T14:18:11.268Z,6.22
2017-10-22T14:20:38.797Z,6.30
2017-10-22T14:23:06.266Z,5.82
2017-10-22T14:25:33.812Z,6.60
2017-10-22T14:28:01.282Z,6.25
2017-10-22T14:30:28.747Z,6.40
2017-10-22T14:32:56.188Z,5.80
2017-10-22T14:35:23.742Z,6.50
2017-10-22T14:37:51.158Z,6.05
2017-10-22T14:40:19.381Z,5.80
2017-10-22T14:42:46.814Z,6.22
2017-10-22T14:45:14.250Z,6.40
2017-10-22T14:47:42.494Z,6.13
2017-10-22T14:50:09.924Z,7.00
2017-10-22T14:52:37.378Z,7.28
2017-10-22T14:55:04.927Z,7.20
2017-10-22T14:57:32.341Z,8.20
2017-10-22T14:59:59.779Z,7.50
2017-10-22T15:02:27.226Z,8.13
2017-10-22T15:04:54.683Z,8.30
2017-10-22T15:07:22.139Z,8.45
2017-10-22T15:09:49.669Z,9.00
2017-10-22T15:12:17.085Z,8.60
2017-10-22T15:14:45.300Z,9.35
2017-10-22T15:17:12.761Z,8.88
2017-10-22T15:19:40.214Z,10.13
2017-10-22T15:22:07.674Z,9.38
2017-10-22T15:24:35.091Z,8.67
2017-10-22T15:27:03.307Z,8.20
2017-10-22T15:29:30.739Z,6.80
2017-10-22T15:31:58.199Z,6.90
2017-10-22T15:34:25.801Z,6.70
2017-10-22T15:36:53.271Z,6.30
2017-10-22T15:39:20.713Z,4.60
2017-10-22T15:41:48.176Z,5.28
2017-10-22T15:44:15.842Z,5.10
2017-10-22T15:46:43.321Z,4.97
2017-10-22T15:49:11.510Z,5.45
2017-10-22T15:51:38.947Z,4.60
2017-10-22T15:54:07.230Z,4.62
2017-10-22T15:56:35.435Z,5.10
2017-10-22T15:59:02.879Z,4.30
2017-10-22T16:01:30.457Z,5.00
2017-10-22T16:03:57.933Z,4.10
2017-10-22T16:06:25.493Z,3.17
2017-10-22T16:08:53.870Z,3.65
2017-10-22T16:11:21.349Z,3.60
2017-10-22T16:13:48.863Z,3.10
2017-10-22T16:16:16.343Z,3.40
2017-10-22T16:18:43.783Z,2.67
2017-10-22T16:21:11.268Z,3.78
2017-10-22T16:23:38.824Z,3.53
2017-10-22T16:26:06.307Z,4.53
2017-10-22T16:28:34.539Z,4.30
2017-10-22T16:31:01.962Z,4.20
2017-10-22T16:33:29.446Z,4.70
2017-10-22T16:35:56.886Z,4.95
2017-10-22T16:38:24.302Z,5.30
2017-10-22T16:40:52.494Z,5.40
2017-10-22T16:43:20.837Z,5.95
2017-10-22T16:45:48.266Z,5.45
2017-10-22T16:48:15.731Z,4.50
2017-10-22T16:50:43.184Z,5.20
2017-10-22T16:53:10.618Z,5.60
2017-10-22T16:55:38.094Z,6.20
2017-10-22T16:58:05.545Z,5.70
2017-10-22T17:00:32.980Z,7.05
2017-10-22T17:03:00.435Z,6.75
2017-10-22T17:05:27.887Z,5.80
2017-10-22T17:07:55.378Z,5.30
2017-10-22T17:10:22.802Z,4.90
2017-10-22T17:12:50.240Z,5.45
2017-10-22T17:15:17.684Z,5.60
2017-10-22T17:17:45.910Z,5.43
2017-10-22T17:20:13.367Z,6.45
2017-10-22T17:22:40.826Z,6.97
2017-10-22T17:25:08.266Z,7.40
2017-10-22T17:27:35.721Z,7.72
2017-10-22T17:30:03.191Z,8.60
2017-10-22T17:32:30.618Z,8.05
2017-10-22T17:34:58.109Z,8.60
2017-10-22T17:37:25.668Z,8.88
2017-10-22T17:39:53.131Z,9.35
2017-10-22T17:42:20.666Z,9.33
2017-10-22T17:44:48.093Z,9.23
2017-10-22T17:47:16.303Z,8.50
2017-10-22T17:49:43.778Z,8.60
2017-10-22T17:52:11.245Z,9.32
2017-10-22T17:54:38.857Z,9.48
2017-10-22T17:57:06.320Z,8.80
2017-10-22T17:59:33.766Z,9.60
2017-10-22T18:02:01.233Z,10.30
2017-10-22T18:04:28.690Z,9.80
2017-10-22T18:06:56.728Z,10.30
2017-10-22T18:09:24.963Z,9.32
2017-10-22T18:11:52.435Z,10.00
2017-10-22T18:14:19.952Z,9.85
2017-10-22T18:16:47.431Z,9.70
2017-10-22T18:19:14.908Z,10.05
2017-10-22T18:21:42.476Z,8.95
2017-10-22T18:24:10.739Z,10.35
2017-10-22T18:26:38.209Z,9.80
2017-10-22T18:29:06.446Z,10.20
2017-10-22T18:31:33.915Z,10.27
2017-10-22T18:34:01.393Z,10.30
2017-10-22T18:36:28.899Z,10.80
2017-10-22T18:38:56.366Z,10.32
2017-10-22T18:41:23.830Z,10.30
2017-10-22T18:43:51.289Z,10.52
2017-10-22T18:46:18.763Z,11.35
2017-10-22T18:48:46.231Z,10.82
2017-10-22T18:51:13.766Z,9.63
2017-10-22T18:53:41.205Z,10.65
2017-10-22T18:56:08.662Z,10.15
2017-10-22T18:58:36.262Z,10.07
2017-10-22T19:01:03.718Z,9.77
2017-10-22T19:03:31.163Z,9.07
2017-10-22T19:05:58.706Z,9.82
2017-10-22T19:08:26.155Z,10.30
2017-10-22T19:10:53.630Z,8.43
2017-10-22T19:13:21.210Z,8.90
2017-10-22T19:15:48.739Z,8.53
2017-10-22T19:18:16.271Z,9.52
2017-10-22T19:20:43.733Z,8.80
2017-10-22T19:23:11.219Z,8.98
2017-10-22T19:25:38.665Z,9.02
2017-10-22T19:28:06.112Z,9.40
2017-10-22T19:30:33.692Z,9.07
2017-10-22T19:33:01.241Z,9.50
2017-10-22T19:35:28.671Z,8.95
2017-10-22T19:37:56.158Z,8.77
2017-10-22T19:40:23.591Z,8.70
2017-10-22T19:42:51.058Z,8.68
2017-10-22T19:45:18.552Z,8.27
2017-10-22T19:47:46.034Z,7.82
2017-10-22T19:50:13.478Z,7.50
2017-10-22T19:52:41.678Z,8.50
2017-10-22T19:55:09.186Z,8.30
2017-10-22T19:57:36.675Z,8.27
2017-10-22T20:00:04.126Z,10.93
2017-10-22T20:02:31.888Z,8.40
2017-10-22T20:05:00.139Z,9.32
2017-10-22T20:07:27.802Z,8.73
2017-10-22T20:09:55.394Z,8.48
2017-10-22T20:12:22.888Z,9.50
2017-10-22T20:14:50.339Z,9.00
2017-10-22T20:17:17.862Z,8.82
2017-10-22T20:19:45.341Z,9.40
2017-10-22T20:22:12.961Z,8.60
2017-10-22T20:24:40.484Z,9.40
2017-10-22T20:27:08.155Z,9.57
2017-10-22T20:29:35.800Z,9.27
2017-10-22T20:32:03.310Z,9.40
2017-10-22T20:34:31.514Z,8.90
2017-10-22T20:36:58.978Z,9.50
2017-10-22T20:39:26.423Z,9.00
2017-10-22T20:41:53.900Z,9.35
2017-10-22T20:44:21.410Z,9.40
2017-10-22T20:46:49.636Z,9.80
2017-10-22T20:49:17.098Z,9.95
2017-10-22T20:51:44.654Z,10.40
2017-10-22T20:54:12.109Z,10.27
2017-10-22T20:56:39.562Z,10.98
2017-10-22T20:59:07.121Z,9.40
2017-10-22T21:01:34.571Z,11.48
2017-10-22T21:04:02.026Z,11.50
2017-10-22T21:06:29.480Z,11.82
2017-10-22T21:08:56.968Z,10.50
2017-10-22T21:11:25.215Z,12.27
2017-10-22T21:13:52.654Z,10.43
2017-10-22T21:16:20.127Z,11.20
2017-10-22T21:18:47.659Z,10.30
2017-10-22T21:21:15.175Z,11.73
2017-10-22T21:23:42.715Z,11.90
2017-10-22T21:26:10.171Z,10.05
2017-10-22T21:28:37.622Z,10.80
2017-10-22T21:31:05.085Z,11.38
2017-10-22T21:33:32.538Z,10.70
2017-10-22T21:35:59.994Z,15.60
2017-10-22T21:38:27.657Z,10.93
2017-10-22T21:40:55.099Z,11.07
2017-10-22T21:43:22.570Z,11.00
2017-10-22T21:45:50.002Z,10.35
2017-10-22T21:48:17.487Z,10.35
2017-10-22T21:50:44.968Z,10.97
2017-10-22T21:53:12.403Z,11.00
2017-10-22T21:55:39.859Z,9.50
2017-10-22T21:58:07.304Z,10.45
2017-10-22T22:00:34.801Z,10.90
2017-10-22T22:03:02.234Z,9.90
2017-10-22T22:05:29.787Z,9.48
2017-10-22T22:07:57.239Z,10.05
2017-10-22T22:10:24.707Z,9.60
2017-10-22T22:12:52.163Z,8.40
2017-10-22T22:15:19.696Z,9.10
2017-10-22T22:17:47.182Z,8.13
2017-10-22T22:20:14.634Z,8.60
2017-10-22T22:22:42.114Z,9.10
2017-10-22T22:25:10.340Z,8.73
2017-10-22T22:27:37.813Z,9.05
2017-10-22T22:30:05.263Z,9.83
2017-10-22T22:32:32.738Z,10.18
2017-10-22T22:35:00.199Z,9.50
2017-10-22T22:37:27.747Z,9.45
2017-10-22T22:39:55.207Z,10.80
2017-10-22T22:42:22.682Z,10.70
2017-10-22T22:44:50.125Z,10.48
2017-10-22T22:47:17.682Z,10.88
2017-10-22T22:49:45.139Z,10.80
2017-10-22T22:52:12.802Z,10.10
2017-10-22T22:54:40.266Z,12.45
2017-10-22T22:57:07.728Z,11.57
2017-10-22T22:59:35.266Z,10.30
2017-10-22T23:02:02.730Z,10.73
2017-10-22T23:04:30.276Z,11.23
2017-10-22T23:06:57.733Z,11.10
2017-10-22T23:09:25.204Z,10.70
2017-10-22T23:11:52.805Z,10.93
2017-10-22T23:14:21.181Z,11.05
2017-10-22T23:16:48.740Z,11.90
2017-10-22T23:19:17.002Z,11.15
2017-10-22T23:21:44.707Z,10.68
2017-10-22T23:24:12.201Z,10.98
2017-10-22T23:26:39.646Z,11.65
2017-10-22T23:29:07.071Z,11.45
2017-10-22T23:31:34.506Z,10.65
2017-10-22T23:34:01.943Z,11.20
2017-10-22T23:36:29.408Z,10.40
2017-10-22T23:38:57.608Z,11.30
2017-10-22T23:41:25.039Z,11.52
2017-10-22T23:43:53.243Z,11.48
2017-10-22T23:46:20.674Z,11.65
2017-10-22T23:48:48.190Z,11.00
2017-10-22T23:51:15.760Z,10.45
2017-10-22T23:53:43.314Z,10.40
2017-10-22T23:56:10.777Z,10.48
2017-10-22T23:58:38.310Z,10.57
